METAR AND TAF INFORMATION
METAR FOR RJDC
ADDS - METARS form results

(2224 UTC 24 October 2021)
Data provider http://aviationweather.gov/metar/data/
 
METAR text: RJDC 242200Z 36005KT 9999 FEW025 SCT090 BKN160 14/07 Q1020
Conditions at: RJDC (YAMAGUCHI/UBE AR, JP) observed 2200 UTC 24 October 2021
Temperature: 14.0°C (57°F)
Dewpoint: 7.0°C (45°F) [RH = 63%]
Pressure (altimeter): 30.12 inches Hg (1020.0 mb)
Winds: from the N (360 degrees) at 6 MPH (5 knots; 2.6 m/s)
Visibility: 6 or more miles (10+ km)
Ceiling: 16000 feet AGL
Clouds: few clouds at 2500 feet AGL
scattered clouds at 9000 feet AGL
broken clouds at 16000 feet AGL
Weather: no significant weather observed at this time

METAR text: RJDC 242130Z 34004KT 310V010 9999 FEW025 SCT090 BKN/// 14/08 Q1021
Conditions at: RJDC (YAMAGUCHI/UBE AR, JP) observed 2130 UTC 24 October 2021
Temperature: 14.0°C (57°F)
Dewpoint: 8.0°C (46°F) [RH = 67%]
Pressure (altimeter): 30.15 inches Hg (1021.0 mb)
Winds: from the NNW (340 degrees) at 5 MPH (4 knots; 2.1 m/s)
Visibility: 6 or more miles (10+ km)
Ceiling: at least 12,000 feet AGL
Clouds: few clouds at 2500 feet AGL
scattered clouds at 9000 feet AGL
Weather: no significant weather observed at this time

 AIRPORT MAP

 RUNWAY INFORMATION
Runway 07 Runway length 8200 ft Runway width 150 ft
Runway elevation 23 ft Runway displaced threshold 0 ft Runway heading 62
Runway 25 Runway length 8200 ft Runway width 150 ft
Runway elevation 22 ft Runway displaced threshold 0 ft Runway heading 242

 AIRPORT FREQUENCIES
Type RDO Name UBE RDO Frequency 118.05 MHZ

 AIRPORT NEAR NAVIGATION AIDS
Type VOR-DME Name Ube Frequency 110800 KHZ



Powered by Virtual Airlines Manager [v2.6.2]